sensor_id;sensor_type;location;lat;lon;timestamp;P1;durP1;ratioP1;P2;durP2;ratioP2
5880;SDS011;2966;52.598;10.928;2022-12-07T00:01:15;20.33;;;13.57;;
5880;SDS011;2966;52.598;10.928;2022-12-07T00:03:44;22.10;;;13.97;;
5880;SDS011;2966;52.598;10.928;2022-12-07T00:06:12;20.80;;;12.60;;
5880;SDS011;2966;52.598;10.928;2022-12-07T00:08:40;24.03;;;12.83;;
5880;SDS011;2966;52.598;10.928;2022-12-07T00:11:08;27.40;;;14.37;;
5880;SDS011;2966;52.598;10.928;2022-12-07T00:13:36;26.40;;;15.97;;
5880;SDS011;2966;52.598;10.928;2022-12-07T00:16:06;24.53;;;14.33;;
5880;SDS011;2966;52.598;10.928;2022-12-07T00:18:34;23.20;;;13.90;;
5880;SDS011;2966;52.598;10.928;2022-12-07T00:21:02;23.17;;;14.23;;
5880;SDS011;2966;52.598;10.928;2022-12-07T00:23:30;22.80;;;14.23;;
5880;SDS011;2966;52.598;10.928;2022-12-07T00:26:02;26.93;;;16.67;;
5880;SDS011;2966;52.598;10.928;2022-12-07T00:28:30;29.80;;;15.87;;
5880;SDS011;2966;52.598;10.928;2022-12-07T00:31:00;29.80;;;18.57;;
5880;SDS011;2966;52.598;10.928;2022-12-07T00:33:29;26.77;;;16.83;;
5880;SDS011;2966;52.598;10.928;2022-12-07T00:35:56;21.20;;;14.70;;
5880;SDS011;2966;52.598;10.928;2022-12-07T00:38:23;22.83;;;15.20;;
5880;SDS011;2966;52.598;10.928;2022-12-07T00:40:53;24.30;;;15.73;;
5880;SDS011;2966;52.598;10.928;2022-12-07T00:43:21;36.53;;;15.70;;
5880;SDS011;2966;52.598;10.928;2022-12-07T00:45:48;29.33;;;14.60;;
5880;SDS011;2966;52.598;10.928;2022-12-07T00:48:15;24.53;;;15.43;;
5880;SDS011;2966;52.598;10.928;2022-12-07T00:50:43;28.03;;;15.40;;
5880;SDS011;2966;52.598;10.928;2022-12-07T00:53:10;30.50;;;14.17;;
5880;SDS011;2966;52.598;10.928;2022-12-07T00:55:37;27.33;;;14.90;;
5880;SDS011;2966;52.598;10.928;2022-12-07T00:58:08;25.83;;;16.03;;
5880;SDS011;2966;52.598;10.928;2022-12-07T01:00:36;20.10;;;12.77;;
5880;SDS011;2966;52.598;10.928;2022-12-07T01:03:04;29.60;;;18.50;;
5880;SDS011;2966;52.598;10.928;2022-12-07T01:05:32;20.57;;;13.20;;
5880;SDS011;2966;52.598;10.928;2022-12-07T01:08:01;27.20;;;15.10;;
5880;SDS011;2966;52.598;10.928;2022-12-07T01:10:28;20.50;;;14.67;;
5880;SDS011;2966;52.598;10.928;2022-12-07T01:12:56;26.23;;;16.60;;
5880;SDS011;2966;52.598;10.928;2022-12-07T01:15:23;27.33;;;13.87;;
5880;SDS011;2966;52.598;10.928;2022-12-07T01:17:50;28.93;;;18.23;;
5880;SDS011;2966;52.598;10.928;2022-12-07T01:20:17;28.10;;;16.47;;
5880;SDS011;2966;52.598;10.928;2022-12-07T01:22:44;32.20;;;17.67;;
5880;SDS011;2966;52.598;10.928;2022-12-07T01:25:12;26.50;;;15.43;;
5880;SDS011;2966;52.598;10.928;2022-12-07T01:27:39;20.40;;;13.40;;
5880;SDS011;2966;52.598;10.928;2022-12-07T01:30:06;23.00;;;13.33;;
5880;SDS011;2966;52.598;10.928;2022-12-07T01:32:34;27.33;;;14.67;;
5880;SDS011;2966;52.598;10.928;2022-12-07T01:35:00;27.13;;;16.07;;
5880;SDS011;2966;52.598;10.928;2022-12-07T01:37:27;30.87;;;15.40;;
5880;SDS011;2966;52.598;10.928;2022-12-07T01:39:54;20.87;;;12.47;;
5880;SDS011;2966;52.598;10.928;2022-12-07T01:42:22;18.87;;;11.67;;
5880;SDS011;2966;52.598;10.928;2022-12-07T01:48:03;27.67;;;15.77;;
5880;SDS011;2966;52.598;10.928;2022-12-07T01:50:31;18.77;;;10.57;;
5880;SDS011;2966;52.598;10.928;2022-12-07T01:52:58;18.07;;;13.37;;
5880;SDS011;2966;52.598;10.928;2022-12-07T01:55:28;14.63;;;9.10;;
5880;SDS011;2966;52.598;10.928;2022-12-07T01:57:57;18.03;;;10.93;;
5880;SDS011;2966;52.598;10.928;2022-12-07T02:00:24;22.37;;;13.87;;
5880;SDS011;2966;52.598;10.928;2022-12-07T02:02:52;22.47;;;12.87;;
5880;SDS011;2966;52.598;10.928;2022-12-07T02:05:22;19.43;;;11.60;;
5880;SDS011;2966;52.598;10.928;2022-12-07T02:07:50;26.30;;;13.87;;
5880;SDS011;2966;52.598;10.928;2022-12-07T02:10:19;22.73;;;13.07;;
5880;SDS011;2966;52.598;10.928;2022-12-07T02:12:48;23.10;;;13.13;;
5880;SDS011;2966;52.598;10.928;2022-12-07T02:15:19;25.87;;;12.40;;
5880;SDS011;2966;52.598;10.928;2022-12-07T02:17:49;16.20;;;12.13;;
5880;SDS011;2966;52.598;10.928;2022-12-07T02:20:21;19.20;;;9.37;;
5880;SDS011;2966;52.598;10.928;2022-12-07T02:26:01;20.20;;;11.17;;
5880;SDS011;2966;52.598;10.928;2022-12-07T02:28:56;28.53;;;15.87;;
5880;SDS011;2966;52.598;10.928;2022-12-07T02:31:41;27.70;;;13.50;;
5880;SDS011;2966;52.598;10.928;2022-12-07T02:34:14;16.90;;;9.07;;
5880;SDS011;2966;52.598;10.928;2022-12-07T02:36:50;25.97;;;11.83;;
5880;SDS011;2966;52.598;10.928;2022-12-07T02:39:23;22.63;;;16.63;;
5880;SDS011;2966;52.598;10.928;2022-12-07T02:41:58;27.17;;;16.00;;
5880;SDS011;2966;52.598;10.928;2022-12-07T02:44:31;33.80;;;16.23;;
5880;SDS011;2966;52.598;10.928;2022-12-07T02:47:00;18.97;;;11.50;;
5880;SDS011;2966;52.598;10.928;2022-12-07T02:49:29;22.70;;;14.63;;
5880;SDS011;2966;52.598;10.928;2022-12-07T02:51:57;31.60;;;17.97;;
5880;SDS011;2966;52.598;10.928;2022-12-07T02:54:24;32.37;;;16.23;;
5880;SDS011;2966;52.598;10.928;2022-12-07T02:56:52;20.67;;;14.87;;
5880;SDS011;2966;52.598;10.928;2022-12-07T02:59:32;27.63;;;15.67;;
5880;SDS011;2966;52.598;10.928;2022-12-07T03:02:15;24.20;;;11.90;;
5880;SDS011;2966;52.598;10.928;2022-12-07T03:04:49;15.93;;;11.50;;
5880;SDS011;2966;52.598;10.928;2022-12-07T03:07:25;24.43;;;12.80;;
5880;SDS011;2966;52.598;10.928;2022-12-07T03:09:59;25.90;;;14.00;;
5880;SDS011;2966;52.598;10.928;2022-12-07T03:12:31;19.87;;;12.37;;
5880;SDS011;2966;52.598;10.928;2022-12-07T03:15:03;15.37;;;7.93;;
5880;SDS011;2966;52.598;10.928;2022-12-07T03:17:33;23.37;;;13.20;;
5880;SDS011;2966;52.598;10.928;2022-12-07T03:20:05;21.17;;;13.37;;
5880;SDS011;2966;52.598;10.928;2022-12-07T03:22:35;23.63;;;15.03;;
5880;SDS011;2966;52.598;10.928;2022-12-07T03:25:06;26.00;;;15.63;;
5880;SDS011;2966;52.598;10.928;2022-12-07T03:27:37;16.10;;;10.60;;
5880;SDS011;2966;52.598;10.928;2022-12-07T03:30:10;20.33;;;11.43;;
5880;SDS011;2966;52.598;10.928;2022-12-07T03:32:41;23.97;;;11.03;;
5880;SDS011;2966;52.598;10.928;2022-12-07T03:35:12;17.67;;;10.57;;
5880;SDS011;2966;52.598;10.928;2022-12-07T03:37:43;31.43;;;13.70;;
5880;SDS011;2966;52.598;10.928;2022-12-07T03:40:15;20.67;;;10.27;;
5880;SDS011;2966;52.598;10.928;2022-12-07T03:42:46;26.57;;;13.43;;
5880;SDS011;2966;52.598;10.928;2022-12-07T03:45:15;18.27;;;11.50;;
5880;SDS011;2966;52.598;10.928;2022-12-07T03:47:43;20.83;;;13.03;;
5880;SDS011;2966;52.598;10.928;2022-12-07T03:50:15;15.70;;;11.97;;
5880;SDS011;2966;52.598;10.928;2022-12-07T03:52:52;31.43;;;13.00;;
5880;SDS011;2966;52.598;10.928;2022-12-07T03:55:24;26.70;;;9.73;;
5880;SDS011;2966;52.598;10.928;2022-12-07T03:57:55;22.50;;;10.63;;
5880;SDS011;2966;52.598;10.928;2022-12-07T04:00:28;17.40;;;9.90;;
5880;SDS011;2966;52.598;10.928;2022-12-07T04:02:55;22.70;;;12.00;;
5880;SDS011;2966;52.598;10.928;2022-12-07T04:05:22;17.93;;;11.93;;
5880;SDS011;2966;52.598;10.928;2022-12-07T04:07:51;21.53;;;11.70;;
5880;SDS011;2966;52.598;10.928;2022-12-07T04:10:18;16.60;;;10.13;;
5880;SDS011;2966;52.598;10.928;2022-12-07T04:12:45;11.80;;;8.00;;
5880;SDS011;2966;52.598;10.928;2022-12-07T04:15:12;14.13;;;8.27;;
5880;SDS011;2966;52.598;10.928;2022-12-07T04:17:40;19.00;;;11.67;;
5880;SDS011;2966;52.598;10.928;2022-12-07T04:20:08;13.40;;;9.87;;
5880;SDS011;2966;52.598;10.928;2022-12-07T04:22:36;14.07;;;8.17;;
5880;SDS011;2966;52.598;10.928;2022-12-07T04:25:03;14.30;;;9.20;;
5880;SDS011;2966;52.598;10.928;2022-12-07T04:27:30;9.70;;;7.17;;
5880;SDS011;2966;52.598;10.928;2022-12-07T04:30:03;14.40;;;9.67;;
5880;SDS011;2966;52.598;10.928;2022-12-07T04:32:32;8.50;;;5.67;;
5880;SDS011;2966;52.598;10.928;2022-12-07T04:35:00;13.53;;;5.97;;
5880;SDS011;2966;52.598;10.928;2022-12-07T04:37:27;16.60;;;8.60;;
5880;SDS011;2966;52.598;10.928;2022-12-07T04:39:54;11.30;;;7.50;;
5880;SDS011;2966;52.598;10.928;2022-12-07T04:42:21;11.07;;;6.07;;
5880;SDS011;2966;52.598;10.928;2022-12-07T04:44:48;7.17;;;5.80;;
5880;SDS011;2966;52.598;10.928;2022-12-07T04:47:15;10.20;;;6.23;;
5880;SDS011;2966;52.598;10.928;2022-12-07T04:49:42;10.10;;;7.03;;
5880;SDS011;2966;52.598;10.928;2022-12-07T04:52:11;8.13;;;5.37;;
5880;SDS011;2966;52.598;10.928;2022-12-07T04:54:37;11.00;;;6.00;;
5880;SDS011;2966;52.598;10.928;2022-12-07T04:57:04;5.70;;;3.50;;
5880;SDS011;2966;52.598;10.928;2022-12-07T04:59:31;8.13;;;6.80;;
5880;SDS011;2966;52.598;10.928;2022-12-07T05:01:58;11.07;;;5.77;;
5880;SDS011;2966;52.598;10.928;2022-12-07T05:04:25;10.33;;;5.03;;
5880;SDS011;2966;52.598;10.928;2022-12-07T05:06:52;7.50;;;5.37;;
5880;SDS011;2966;52.598;10.928;2022-12-07T05:09:20;10.20;;;4.87;;
5880;SDS011;2966;52.598;10.928;2022-12-07T05:11:47;9.77;;;6.23;;
5880;SDS011;2966;52.598;10.928;2022-12-07T05:14:15;7.00;;;4.60;;
5880;SDS011;2966;52.598;10.928;2022-12-07T05:16:43;6.27;;;5.03;;
5880;SDS011;2966;52.598;10.928;2022-12-07T05:19:14;15.80;;;5.43;;
5880;SDS011;2966;52.598;10.928;2022-12-07T05:21:41;14.03;;;6.07;;
5880;SDS011;2966;52.598;10.928;2022-12-07T05:24:09;5.17;;;4.40;;
5880;SDS011;2966;52.598;10.928;2022-12-07T05:26:39;13.77;;;7.43;;
5880;SDS011;2966;52.598;10.928;2022-12-07T05:29:07;8.80;;;4.50;;
5880;SDS011;2966;52.598;10.928;2022-12-07T05:31:36;7.60;;;6.50;;
5880;SDS011;2966;52.598;10.928;2022-12-07T05:34:03;5.63;;;3.20;;
5880;SDS011;2966;52.598;10.928;2022-12-07T05:36:30;11.70;;;5.23;;
5880;SDS011;2966;52.598;10.928;2022-12-07T05:38:57;5.03;;;4.53;;
5880;SDS011;2966;52.598;10.928;2022-12-07T05:41:24;7.20;;;4.27;;
5880;SDS011;2966;52.598;10.928;2022-12-07T05:44:09;6.57;;;4.23;;
5880;SDS011;2966;52.598;10.928;2022-12-07T05:46:37;7.13;;;5.07;;
5880;SDS011;2966;52.598;10.928;2022-12-07T05:49:04;8.50;;;5.20;;
5880;SDS011;2966;52.598;10.928;2022-12-07T05:51:31;8.27;;;5.73;;
5880;SDS011;2966;52.598;10.928;2022-12-07T05:53:58;5.70;;;5.17;;
5880;SDS011;2966;52.598;10.928;2022-12-07T05:56:24;7.93;;;3.40;;
5880;SDS011;2966;52.598;10.928;2022-12-07T05:58:52;6.10;;;5.00;;
5880;SDS011;2966;52.598;10.928;2022-12-07T06:01:38;4.50;;;3.57;;
5880;SDS011;2966;52.598;10.928;2022-12-07T06:04:05;5.40;;;3.67;;
5880;SDS011;2966;52.598;10.928;2022-12-07T06:06:31;5.13;;;4.33;;
5880;SDS011;2966;52.598;10.928;2022-12-07T06:08:59;4.50;;;3.43;;
5880;SDS011;2966;52.598;10.928;2022-12-07T06:11:26;7.20;;;4.53;;
5880;SDS011;2966;52.598;10.928;2022-12-07T06:14:10;19.10;;;8.70;;
5880;SDS011;2966;52.598;10.928;2022-12-07T06:16:38;10.07;;;4.70;;
5880;SDS011;2966;52.598;10.928;2022-12-07T06:19:06;9.87;;;4.70;;
5880;SDS011;2966;52.598;10.928;2022-12-07T06:21:33;9.07;;;3.60;;
5880;SDS011;2966;52.598;10.928;2022-12-07T06:24:01;6.30;;;4.03;;
5880;SDS011;2966;52.598;10.928;2022-12-07T06:26:29;8.77;;;4.93;;
5880;SDS011;2966;52.598;10.928;2022-12-07T06:29:00;7.50;;;4.37;;
5880;SDS011;2966;52.598;10.928;2022-12-07T06:31:28;7.10;;;3.73;;
5880;SDS011;2966;52.598;10.928;2022-12-07T06:33:58;3.33;;;3.03;;
5880;SDS011;2966;52.598;10.928;2022-12-07T06:36:26;6.67;;;5.33;;
5880;SDS011;2966;52.598;10.928;2022-12-07T06:38:54;16.50;;;5.83;;
5880;SDS011;2966;52.598;10.928;2022-12-07T06:41:21;6.70;;;4.10;;
5880;SDS011;2966;52.598;10.928;2022-12-07T06:43:49;5.50;;;4.50;;
5880;SDS011;2966;52.598;10.928;2022-12-07T06:46:16;7.10;;;5.30;;
5880;SDS011;2966;52.598;10.928;2022-12-07T06:48:43;4.17;;;3.50;;
5880;SDS011;2966;52.598;10.928;2022-12-07T06:51:11;5.53;;;4.37;;
5880;SDS011;2966;52.598;10.928;2022-12-07T06:53:38;6.90;;;4.57;;
5880;SDS011;2966;52.598;10.928;2022-12-07T06:56:05;19.13;;;5.30;;
5880;SDS011;2966;52.598;10.928;2022-12-07T06:58:32;6.27;;;4.57;;
5880;SDS011;2966;52.598;10.928;2022-12-07T07:00:59;6.57;;;4.40;;
5880;SDS011;2966;52.598;10.928;2022-12-07T07:03:30;10.30;;;6.60;;
5880;SDS011;2966;52.598;10.928;2022-12-07T07:05:57;10.73;;;5.90;;
5880;SDS011;2966;52.598;10.928;2022-12-07T07:08:25;8.03;;;4.63;;
5880;SDS011;2966;52.598;10.928;2022-12-07T07:10:52;9.17;;;5.17;;
5880;SDS011;2966;52.598;10.928;2022-12-07T07:13:19;4.80;;;3.70;;
5880;SDS011;2966;52.598;10.928;2022-12-07T07:15:46;11.87;;;6.77;;
5880;SDS011;2966;52.598;10.928;2022-12-07T07:18:13;11.20;;;6.70;;
5880;SDS011;2966;52.598;10.928;2022-12-07T07:20:40;13.00;;;6.07;;
5880;SDS011;2966;52.598;10.928;2022-12-07T07:23:07;11.80;;;7.60;;
5880;SDS011;2966;52.598;10.928;2022-12-07T07:25:35;10.23;;;4.97;;
5880;SDS011;2966;52.598;10.928;2022-12-07T07:28:03;3.90;;;3.50;;
5880;SDS011;2966;52.598;10.928;2022-12-07T07:30:30;8.70;;;5.50;;
5880;SDS011;2966;52.598;10.928;2022-12-07T07:32:57;12.30;;;5.57;;
5880;SDS011;2966;52.598;10.928;2022-12-07T07:35:24;8.43;;;4.63;;
5880;SDS011;2966;52.598;10.928;2022-12-07T07:37:51;5.60;;;5.00;;
5880;SDS011;2966;52.598;10.928;2022-12-07T07:40:18;8.53;;;3.90;;
5880;SDS011;2966;52.598;10.928;2022-12-07T07:42:48;4.30;;;3.80;;
5880;SDS011;2966;52.598;10.928;2022-12-07T07:45:15;10.40;;;7.57;;
5880;SDS011;2966;52.598;10.928;2022-12-07T07:47:42;8.27;;;5.13;;
5880;SDS011;2966;52.598;10.928;2022-12-07T07:50:09;13.60;;;6.70;;
5880;SDS011;2966;52.598;10.928;2022-12-07T07:52:36;14.47;;;6.30;;
5880;SDS011;2966;52.598;10.928;2022-12-07T07:55:04;7.23;;;4.40;;
5880;SDS011;2966;52.598;10.928;2022-12-07T07:57:33;6.40;;;4.80;;
5880;SDS011;2966;52.598;10.928;2022-12-07T08:00:02;11.37;;;5.63;;
5880;SDS011;2966;52.598;10.928;2022-12-07T08:02:30;8.60;;;5.70;;
5880;SDS011;2966;52.598;10.928;2022-12-07T08:04:57;10.30;;;4.50;;
5880;SDS011;2966;52.598;10.928;2022-12-07T08:07:24;6.63;;;4.97;;
5880;SDS011;2966;52.598;10.928;2022-12-07T08:09:50;6.13;;;3.50;;
5880;SDS011;2966;52.598;10.928;2022-12-07T08:12:17;5.20;;;2.80;;
5880;SDS011;2966;52.598;10.928;2022-12-07T08:14:44;2.60;;;2.30;;
5880;SDS011;2966;52.598;10.928;2022-12-07T08:17:13;1.97;;;1.80;;
5880;SDS011;2966;52.598;10.928;2022-12-07T08:19:40;10.47;;;2.67;;
5880;SDS011;2966;52.598;10.928;2022-12-07T08:22:07;2.30;;;2.10;;
5880;SDS011;2966;52.598;10.928;2022-12-07T08:24:34;2.57;;;1.63;;
5880;SDS011;2966;52.598;10.928;2022-12-07T08:27:01;5.03;;;3.83;;
5880;SDS011;2966;52.598;10.928;2022-12-07T08:29:31;3.07;;;2.43;;
5880;SDS011;2966;52.598;10.928;2022-12-07T08:31:57;1.30;;;1.20;;
5880;SDS011;2966;52.598;10.928;2022-12-07T08:34:27;23.37;;;2.97;;
5880;SDS011;2966;52.598;10.928;2022-12-07T08:36:54;2.37;;;2.17;;
5880;SDS011;2966;52.598;10.928;2022-12-07T08:39:21;3.73;;;3.40;;
5880;SDS011;2966;52.598;10.928;2022-12-07T08:41:48;5.13;;;4.63;;
5880;SDS011;2966;52.598;10.928;2022-12-07T08:44:15;4.10;;;3.63;;
5880;SDS011;2966;52.598;10.928;2022-12-07T08:46:42;3.73;;;2.83;;
5880;SDS011;2966;52.598;10.928;2022-12-07T08:49:14;3.50;;;3.17;;
5880;SDS011;2966;52.598;10.928;2022-12-07T08:51:46;4.37;;;3.97;;
5880;SDS011;2966;52.598;10.928;2022-12-07T08:54:15;4.03;;;2.80;;
5880;SDS011;2966;52.598;10.928;2022-12-07T08:56:43;9.13;;;4.07;;
5880;SDS011;2966;52.598;10.928;2022-12-07T08:59:12;7.50;;;3.90;;
5880;SDS011;2966;52.598;10.928;2022-12-07T09:01:41;3.70;;;3.40;;
5880;SDS011;2966;52.598;10.928;2022-12-07T09:04:08;5.20;;;3.10;;
5880;SDS011;2966;52.598;10.928;2022-12-07T09:06:35;6.97;;;3.97;;
5880;SDS011;2966;52.598;10.928;2022-12-07T09:09:04;3.57;;;3.10;;
5880;SDS011;2966;52.598;10.928;2022-12-07T09:11:31;4.30;;;2.97;;
5880;SDS011;2966;52.598;10.928;2022-12-07T09:13:58;4.73;;;3.47;;
5880;SDS011;2966;52.598;10.928;2022-12-07T09:16:25;6.67;;;2.80;;
5880;SDS011;2966;52.598;10.928;2022-12-07T09:18:52;5.07;;;3.77;;
5880;SDS011;2966;52.598;10.928;2022-12-07T09:21:18;3.23;;;2.90;;
5880;SDS011;2966;52.598;10.928;2022-12-07T09:23:45;8.43;;;4.93;;
5880;SDS011;2966;52.598;10.928;2022-12-07T09:26:14;5.20;;;4.13;;
5880;SDS011;2966;52.598;10.928;2022-12-07T09:28:40;3.17;;;2.87;;
5880;SDS011;2966;52.598;10.928;2022-12-07T09:31:08;7.13;;;5.43;;
5880;SDS011;2966;52.598;10.928;2022-12-07T09:33:35;5.90;;;3.57;;
5880;SDS011;2966;52.598;10.928;2022-12-07T09:36:02;4.97;;;3.30;;
5880;SDS011;2966;52.598;10.928;2022-12-07T09:38:30;5.23;;;3.70;;
5880;SDS011;2966;52.598;10.928;2022-12-07T09:40:57;6.67;;;3.90;;
5880;SDS011;2966;52.598;10.928;2022-12-07T09:43:35;3.53;;;3.10;;
5880;SDS011;2966;52.598;10.928;2022-12-07T09:46:05;4.67;;;3.70;;
5880;SDS011;2966;52.598;10.928;2022-12-07T09:48:32;2.47;;;2.10;;
5880;SDS011;2966;52.598;10.928;2022-12-07T09:51:02;5.60;;;2.87;;
5880;SDS011;2966;52.598;10.928;2022-12-07T09:53:37;11.87;;;4.10;;
5880;SDS011;2966;52.598;10.928;2022-12-07T09:56:04;5.13;;;2.93;;
5880;SDS011;2966;52.598;10.928;2022-12-07T09:58:33;2.83;;;2.63;;
5880;SDS011;2966;52.598;10.928;2022-12-07T10:01:01;4.90;;;4.50;;
5880;SDS011;2966;52.598;10.928;2022-12-07T10:03:36;3.60;;;3.23;;
5880;SDS011;2966;52.598;10.928;2022-12-07T10:06:06;2.80;;;2.37;;
5880;SDS011;2966;52.598;10.928;2022-12-07T10:08:33;3.23;;;3.03;;
5880;SDS011;2966;52.598;10.928;2022-12-07T10:11:01;4.50;;;3.77;;
5880;SDS011;2966;52.598;10.928;2022-12-07T10:13:37;4.40;;;2.83;;
5880;SDS011;2966;52.598;10.928;2022-12-07T10:16:05;10.63;;;3.53;;
5880;SDS011;2966;52.598;10.928;2022-12-07T10:18:33;4.10;;;2.07;;
5880;SDS011;2966;52.598;10.928;2022-12-07T10:21:12;5.43;;;4.10;;
5880;SDS011;2966;52.598;10.928;2022-12-07T10:23:41;5.63;;;2.53;;
5880;SDS011;2966;52.598;10.928;2022-12-07T10:26:29;1.83;;;1.73;;
5880;SDS011;2966;52.598;10.928;2022-12-07T10:29:00;1.77;;;1.67;;
5880;SDS011;2966;52.598;10.928;2022-12-07T10:31:30;2.33;;;2.23;;
5880;SDS011;2966;52.598;10.928;2022-12-07T10:33:58;2.67;;;1.97;;
5880;SDS011;2966;52.598;10.928;2022-12-07T10:36:27;3.03;;;2.33;;
5880;SDS011;2966;52.598;10.928;2022-12-07T10:39:09;2.50;;;2.27;;
5880;SDS011;2966;52.598;10.928;2022-12-07T10:41:47;3.43;;;2.83;;
5880;SDS011;2966;52.598;10.928;2022-12-07T10:44:22;8.50;;;3.07;;
5880;SDS011;2966;52.598;10.928;2022-12-07T10:46:53;10.53;;;3.57;;
5880;SDS011;2966;52.598;10.928;2022-12-07T10:52:38;1.83;;;1.73;;
5880;SDS011;2966;52.598;10.928;2022-12-07T10:55:16;4.20;;;2.60;;
5880;SDS011;2966;52.598;10.928;2022-12-07T10:57:52;2.40;;;2.20;;
5880;SDS011;2966;52.598;10.928;2022-12-07T11:00:34;2.30;;;2.10;;
5880;SDS011;2966;52.598;10.928;2022-12-07T11:05:59;5.30;;;2.70;;
5880;SDS011;2966;52.598;10.928;2022-12-07T11:08:39;4.70;;;1.80;;
5880;SDS011;2966;52.598;10.928;2022-12-07T11:11:21;4.30;;;3.00;;
5880;SDS011;2966;52.598;10.928;2022-12-07T11:13:58;3.50;;;2.17;;
5880;SDS011;2966;52.598;10.928;2022-12-07T11:16:48;5.63;;;3.50;;
5880;SDS011;2966;52.598;10.928;2022-12-07T11:19:39;2.90;;;2.70;;
5880;SDS011;2966;52.598;10.928;2022-12-07T11:22:18;7.60;;;3.27;;
5880;SDS011;2966;52.598;10.928;2022-12-07T11:24:53;2.27;;;2.07;;
5880;SDS011;2966;52.598;10.928;2022-12-07T11:27:30;10.93;;;2.70;;
5880;SDS011;2966;52.598;10.928;2022-12-07T11:30:12;4.23;;;2.63;;
5880;SDS011;2966;52.598;10.928;2022-12-07T11:32:46;4.30;;;1.37;;
5880;SDS011;2966;52.598;10.928;2022-12-07T11:35:22;3.33;;;2.37;;
5880;SDS011;2966;52.598;10.928;2022-12-07T11:37:57;3.17;;;2.60;;
5880;SDS011;2966;52.598;10.928;2022-12-07T11:40:28;3.43;;;2.30;;
5880;SDS011;2966;52.598;10.928;2022-12-07T11:43:00;3.20;;;2.10;;
5880;SDS011;2966;52.598;10.928;2022-12-07T11:45:30;4.13;;;3.10;;
5880;SDS011;2966;52.598;10.928;2022-12-07T11:48:01;8.73;;;3.80;;
5880;SDS011;2966;52.598;10.928;2022-12-07T11:50:33;4.27;;;2.50;;
5880;SDS011;2966;52.598;10.928;2022-12-07T11:53:03;2.23;;;1.97;;
5880;SDS011;2966;52.598;10.928;2022-12-07T11:55:39;2.40;;;2.20;;
5880;SDS011;2966;52.598;10.928;2022-12-07T11:58:12;2.50;;;1.40;;
5880;SDS011;2966;52.598;10.928;2022-12-07T12:00:47;4.80;;;2.90;;
5880;SDS011;2966;52.598;10.928;2022-12-07T12:03:18;4.37;;;2.07;;
5880;SDS011;2966;52.598;10.928;2022-12-07T12:05:55;2.73;;;2.53;;
5880;SDS011;2966;52.598;10.928;2022-12-07T12:08:23;2.80;;;2.17;;
5880;SDS011;2966;52.598;10.928;2022-12-07T12:10:58;2.87;;;2.57;;
5880;SDS011;2966;52.598;10.928;2022-12-07T12:13:49;2.50;;;2.30;;
5880;SDS011;2966;52.598;10.928;2022-12-07T12:16:39;5.97;;;2.90;;
5880;SDS011;2966;52.598;10.928;2022-12-07T12:19:29;2.60;;;2.40;;
5880;SDS011;2966;52.598;10.928;2022-12-07T12:22:02;5.73;;;2.20;;
5880;SDS011;2966;52.598;10.928;2022-12-07T12:24:36;2.30;;;2.20;;
5880;SDS011;2966;52.598;10.928;2022-12-07T12:27:07;3.53;;;2.63;;
5880;SDS011;2966;52.598;10.928;2022-12-07T12:29:37;5.07;;;3.07;;
5880;SDS011;2966;52.598;10.928;2022-12-07T12:32:06;15.73;;;2.17;;
5880;SDS011;2966;52.598;10.928;2022-12-07T12:34:41;2.30;;;2.03;;
5880;SDS011;2966;52.598;10.928;2022-12-07T12:37:43;3.73;;;2.30;;
5880;SDS011;2966;52.598;10.928;2022-12-07T12:49:30;1.70;;;1.60;;
5880;SDS011;2966;52.598;10.928;2022-12-07T12:55:16;2.50;;;1.70;;
5880;SDS011;2966;52.598;10.928;2022-12-07T12:58:28;5.10;;;2.00;;
5880;SDS011;2966;52.598;10.928;2022-12-07T13:03:58;7.33;;;2.03;;
5880;SDS011;2966;52.598;10.928;2022-12-07T13:06:35;1.70;;;1.60;;
5880;SDS011;2966;52.598;10.928;2022-12-07T13:09:03;4.77;;;2.40;;
5880;SDS011;2966;52.598;10.928;2022-12-07T13:11:33;4.13;;;2.90;;
5880;SDS011;2966;52.598;10.928;2022-12-07T13:17:07;1.50;;;1.40;;
5880;SDS011;2966;52.598;10.928;2022-12-07T13:22:38;5.17;;;2.20;;
5880;SDS011;2966;52.598;10.928;2022-12-07T13:25:27;3.40;;;2.57;;
5880;SDS011;2966;52.598;10.928;2022-12-07T13:28:00;6.47;;;2.87;;
5880;SDS011;2966;52.598;10.928;2022-12-07T13:30:33;5.80;;;2.00;;
5880;SDS011;2966;52.598;10.928;2022-12-07T13:33:17;1.30;;;1.20;;
5880;SDS011;2966;52.598;10.928;2022-12-07T13:35:45;1.63;;;1.20;;
5880;SDS011;2966;52.598;10.928;2022-12-07T13:38:22;3.17;;;2.33;;
5880;SDS011;2966;52.598;10.928;2022-12-07T13:41:00;5.47;;;2.17;;
5880;SDS011;2966;52.598;10.928;2022-12-07T13:43:43;1.07;;;1.03;;
5880;SDS011;2966;52.598;10.928;2022-12-07T13:46:15;6.23;;;0.97;;
5880;SDS011;2966;52.598;10.928;2022-12-07T13:48:46;4.77;;;2.10;;
5880;SDS011;2966;52.598;10.928;2022-12-07T13:51:17;4.80;;;2.70;;
5880;SDS011;2966;52.598;10.928;2022-12-07T13:53:47;2.20;;;2.03;;
5880;SDS011;2966;52.598;10.928;2022-12-07T13:56:14;2.23;;;1.90;;
5880;SDS011;2966;52.598;10.928;2022-12-07T13:58:41;3.97;;;1.93;;
5880;SDS011;2966;52.598;10.928;2022-12-07T14:01:10;1.57;;;1.40;;
5880;SDS011;2966;52.598;10.928;2022-12-07T14:03:38;2.70;;;1.67;;
5880;SDS011;2966;52.598;10.928;2022-12-07T14:09:05;1.83;;;1.70;;
5880;SDS011;2966;52.598;10.928;2022-12-07T14:11:33;1.50;;;1.30;;
5880;SDS011;2966;52.598;10.928;2022-12-07T14:14:02;2.33;;;1.57;;
5880;SDS011;2966;52.598;10.928;2022-12-07T14:16:31;0.93;;;0.90;;
5880;SDS011;2966;52.598;10.928;2022-12-07T14:19:02;1.67;;;1.57;;
5880;SDS011;2966;52.598;10.928;2022-12-07T14:21:30;5.10;;;1.83;;
5880;SDS011;2966;52.598;10.928;2022-12-07T14:24:06;2.60;;;2.07;;
5880;SDS011;2966;52.598;10.928;2022-12-07T14:26:41;5.83;;;1.77;;
5880;SDS011;2966;52.598;10.928;2022-12-07T14:29:27;1.53;;;1.40;;
5880;SDS011;2966;52.598;10.928;2022-12-07T14:32:17;1.80;;;1.43;;
5880;SDS011;2966;52.598;10.928;2022-12-07T14:34:54;1.30;;;1.20;;
5880;SDS011;2966;52.598;10.928;2022-12-07T14:37:23;1.80;;;1.70;;
5880;SDS011;2966;52.598;10.928;2022-12-07T14:39:50;1.87;;;1.30;;
5880;SDS011;2966;52.598;10.928;2022-12-07T14:42:17;2.00;;;1.40;;
5880;SDS011;2966;52.598;10.928;2022-12-07T14:44:45;2.90;;;1.30;;
5880;SDS011;2966;52.598;10.928;2022-12-07T14:47:12;7.93;;;2.00;;
5880;SDS011;2966;52.598;10.928;2022-12-07T14:49:39;3.97;;;2.60;;
5880;SDS011;2966;52.598;10.928;2022-12-07T14:52:06;2.00;;;1.60;;
5880;SDS011;2966;52.598;10.928;2022-12-07T14:54:40;2.50;;;1.97;;
5880;SDS011;2966;52.598;10.928;2022-12-07T14:57:08;2.10;;;1.60;;
5880;SDS011;2966;52.598;10.928;2022-12-07T14:59:35;2.67;;;1.87;;
5880;SDS011;2966;52.598;10.928;2022-12-07T15:02:03;4.50;;;1.67;;
5880;SDS011;2966;52.598;10.928;2022-12-07T15:04:30;3.40;;;1.30;;
5880;SDS011;2966;52.598;10.928;2022-12-07T15:06:57;1.97;;;1.30;;
5880;SDS011;2966;52.598;10.928;2022-12-07T15:09:25;4.97;;;2.37;;
5880;SDS011;2966;52.598;10.928;2022-12-07T15:11:52;2.60;;;1.70;;
5880;SDS011;2966;52.598;10.928;2022-12-07T15:14:19;2.23;;;1.73;;
5880;SDS011;2966;52.598;10.928;2022-12-07T15:16:46;1.03;;;0.97;;
5880;SDS011;2966;52.598;10.928;2022-12-07T15:19:15;0.90;;;0.90;;
5880;SDS011;2966;52.598;10.928;2022-12-07T15:21:43;2.30;;;1.00;;
5880;SDS011;2966;52.598;10.928;2022-12-07T15:24:11;1.30;;;1.10;;
5880;SDS011;2966;52.598;10.928;2022-12-07T15:26:38;6.53;;;3.03;;
5880;SDS011;2966;52.598;10.928;2022-12-07T15:29:06;3.50;;;2.60;;
5880;SDS011;2966;52.598;10.928;2022-12-07T15:31:33;4.33;;;2.37;;
5880;SDS011;2966;52.598;10.928;2022-12-07T15:34:00;2.40;;;2.17;;
5880;SDS011;2966;52.598;10.928;2022-12-07T15:36:32;2.67;;;2.47;;
5880;SDS011;2966;52.598;10.928;2022-12-07T15:39:01;1.63;;;1.30;;
5880;SDS011;2966;52.598;10.928;2022-12-07T15:41:28;3.27;;;1.03;;
5880;SDS011;2966;52.598;10.928;2022-12-07T15:43:55;1.57;;;1.37;;
5880;SDS011;2966;52.598;10.928;2022-12-07T15:46:40;1.30;;;1.20;;
5880;SDS011;2966;52.598;10.928;2022-12-07T15:49:12;3.30;;;2.43;;